Terminal Aerodrome Forecast
Issued by NWS

Home | Current Version | Previous Version | Text Only | Print | Product List | Glossary On
Versions: 1 2 3 4 5 6 7 8 9 10 11 12 13 14 15 16 17 18 19 20 21 22
157
FTUS46 KLOX 071741
TAFOXR
TAF
KOXR 071741Z 0718/0818 03008KT P6SM SCT150
     FM072000 27010KT P6SM SCT120
     FM080300 VRB03KT P6SM BKN100=

USA.gov is the U.S. government's official web portal to all federal, state and local government web resources and services.